createdAt,value
2018-11-04T00:00:27.510Z,17.17
2018-11-04T00:02:55.008Z,17.37
2018-11-04T00:05:22.562Z,18.30
2018-11-04T00:07:50.706Z,18.45
2018-11-04T00:10:18.276Z,17.70
2018-11-04T00:12:45.761Z,18.00
2018-11-04T00:15:13.264Z,18.10
2018-11-04T00:17:40.867Z,17.42
2018-11-04T00:20:10.825Z,19.60
2018-11-04T00:22:38.437Z,17.52
2018-11-04T00:25:06.984Z,18.60
2018-11-04T00:27:34.555Z,17.25
2018-11-04T00:30:02.040Z,17.42
2018-11-04T00:32:29.621Z,17.70
2018-11-04T00:34:57.121Z,16.35
2018-11-04T00:37:24.758Z,17.32
2018-11-04T00:39:52.248Z,17.80
2018-11-04T00:42:19.814Z,18.12
2018-11-04T00:44:47.349Z,17.98
2018-11-04T00:47:14.908Z,17.85
2018-11-04T00:49:42.514Z,18.48
2018-11-04T00:52:10.142Z,19.80
2018-11-04T00:54:37.639Z,18.40
2018-11-04T00:57:05.174Z,17.92
2018-11-04T00:59:32.757Z,18.00
2018-11-04T01:02:00.230Z,18.95
2018-11-04T01:04:27.799Z,18.20
2018-11-04T01:06:55.344Z,20.57
2018-11-04T01:09:22.893Z,16.90
2018-11-04T01:11:50.397Z,18.77
2018-11-04T01:14:17.939Z,18.98
2018-11-04T01:16:46.331Z,19.40
2018-11-04T01:19:13.921Z,18.57
2018-11-04T01:21:41.399Z,19.00
2018-11-04T01:24:08.967Z,20.37
2018-11-04T01:26:36.487Z,19.35
2018-11-04T01:29:04.178Z,20.15
2018-11-04T01:31:31.641Z,18.20
2018-11-04T01:33:59.253Z,18.65
2018-11-04T01:36:26.741Z,19.15
2018-11-04T01:38:54.302Z,17.92
2018-11-04T01:41:21.774Z,19.55
2018-11-04T01:43:49.328Z,18.95
2018-11-04T01:46:16.824Z,18.77
2018-11-04T01:48:44.305Z,18.95
2018-11-04T01:51:11.945Z,19.25
2018-11-04T01:53:39.405Z,18.90
2018-11-04T01:56:07.007Z,20.30
2018-11-04T01:58:34.452Z,19.98
2018-11-04T02:01:02.027Z,21.15
2018-11-04T02:03:29.533Z,19.45
2018-11-04T02:05:57.134Z,20.62
2018-11-04T02:08:24.603Z,20.05
2018-11-04T02:10:52.085Z,20.57
2018-11-04T02:13:19.657Z,21.75
2018-11-04T02:15:47.238Z,20.48
2018-11-04T02:18:14.717Z,19.23
2018-11-04T02:20:42.284Z,20.60
2018-11-04T02:23:09.766Z,20.45
2018-11-04T02:25:37.303Z,20.88
2018-11-04T02:28:04.996Z,18.92
2018-11-04T02:30:32.557Z,20.23
2018-11-04T02:33:00.071Z,21.45
2018-11-04T02:35:27.521Z,20.72
2018-11-04T02:37:55.051Z,21.20
2018-11-04T02:40:22.516Z,19.90
2018-11-04T02:42:50.057Z,21.75
2018-11-04T02:45:17.530Z,18.77
2018-11-04T02:47:45.075Z,21.52
2018-11-04T02:50:12.730Z,21.55
2018-11-04T02:52:40.294Z,19.17
2018-11-04T02:55:08.259Z,19.67
2018-11-04T02:57:35.873Z,20.48
2018-11-04T03:00:03.726Z,20.55
2018-11-04T03:02:31.264Z,20.23
2018-11-04T03:04:58.816Z,20.70
2018-11-04T03:07:26.290Z,19.55
2018-11-04T03:09:53.841Z,21.65
2018-11-04T03:12:21.329Z,20.88
2018-11-04T03:14:48.975Z,19.90
2018-11-04T03:17:16.430Z,18.82
2018-11-04T03:19:43.979Z,20.80
2018-11-04T03:22:11.454Z,20.12
2018-11-04T03:24:38.986Z,21.97
2018-11-04T03:27:06.473Z,20.15
2018-11-04T03:29:34.023Z,19.98
2018-11-04T03:32:01.513Z,19.70
2018-11-04T03:34:29.069Z,19.10
2018-11-04T03:36:56.537Z,19.00
2018-11-04T03:39:24.079Z,20.00
2018-11-04T03:41:51.533Z,20.70
2018-11-04T03:44:19.066Z,20.15
2018-11-04T03:46:46.574Z,20.20
2018-11-04T03:49:14.828Z,21.23
2018-11-04T03:51:42.367Z,23.60
2018-11-04T03:54:09.862Z,22.05
2018-11-04T03:56:37.432Z,23.10
2018-11-04T03:59:05.079Z,21.23
2018-11-04T04:01:32.655Z,24.35
2018-11-04T04:04:00.145Z,21.80
2018-11-04T04:06:27.691Z,22.35
2018-11-04T04:08:55.210Z,22.70
2018-11-04T04:11:22.753Z,21.50
2018-11-04T04:13:50.207Z,21.95
2018-11-04T04:16:17.813Z,23.15
2018-11-04T04:18:45.242Z,23.12
2018-11-04T04:21:12.798Z,25.52
2018-11-04T04:23:41.133Z,23.80
2018-11-04T04:26:09.993Z,23.22
2018-11-04T04:28:37.496Z,22.65
2018-11-04T04:31:04.998Z,23.50
2018-11-04T04:33:32.557Z,23.22
2018-11-04T04:36:00.127Z,24.07
2018-11-04T04:38:27.670Z,25.50
2018-11-04T04:40:55.126Z,23.92
2018-11-04T04:43:22.824Z,25.08
2018-11-04T04:45:50.693Z,23.70
2018-11-04T04:48:18.324Z,25.65
2018-11-04T04:50:45.916Z,24.20
2018-11-04T04:53:13.442Z,26.77
2018-11-04T04:55:40.920Z,25.60
2018-11-04T04:58:08.437Z,25.60
2018-11-04T05:00:35.918Z,25.45
2018-11-04T05:03:03.487Z,26.27
2018-11-04T05:05:31.937Z,26.60
2018-11-04T05:07:59.531Z,27.65
2018-11-04T05:10:27.085Z,25.43
2018-11-04T05:12:54.573Z,25.57
2018-11-04T05:15:22.130Z,25.55
2018-11-04T05:17:49.573Z,24.67
2018-11-04T05:20:17.095Z,24.75
2018-11-04T05:22:44.548Z,24.80
2018-11-04T05:25:12.106Z,25.40
2018-11-04T05:27:39.590Z,25.62
2018-11-04T05:30:08.830Z,24.87
2018-11-04T05:32:36.403Z,23.90
2018-11-04T05:35:04.034Z,24.10
2018-11-04T05:37:31.479Z,28.30
2018-11-04T05:39:59.017Z,26.23
2018-11-04T05:42:26.489Z,25.25
2018-11-04T05:44:54.039Z,23.07
2018-11-04T05:47:21.530Z,24.60
2018-11-04T05:49:49.123Z,23.05
2018-11-04T05:52:16.591Z,26.30
2018-11-04T05:54:44.149Z,26.17
2018-11-04T05:57:11.618Z,27.42
2018-11-04T05:59:39.182Z,24.15
2018-11-04T06:02:06.677Z,26.05
2018-11-04T06:04:34.226Z,23.80
2018-11-04T06:07:01.992Z,23.77
2018-11-04T06:09:29.545Z,26.17
2018-11-04T06:11:57.033Z,24.32
2018-11-04T06:14:24.575Z,24.50
2018-11-04T06:16:52.110Z,27.02
2018-11-04T06:19:19.617Z,23.30
2018-11-04T06:21:47.138Z,25.20
2018-11-04T06:24:14.626Z,23.20
2018-11-04T06:26:42.154Z,25.30
2018-11-04T06:29:09.638Z,25.80
2018-11-04T06:31:37.150Z,24.12
2018-11-04T06:34:05.078Z,22.75
2018-11-04T06:36:32.643Z,24.23
2018-11-04T06:39:00.098Z,24.37
2018-11-04T06:41:27.662Z,22.90
2018-11-04T06:43:55.134Z,25.37
2018-11-04T06:46:22.710Z,23.00
2018-11-04T06:48:50.171Z,23.83
2018-11-04T06:51:17.726Z,24.57
2018-11-04T06:53:45.264Z,24.07
2018-11-04T06:56:12.752Z,23.70
2018-11-04T06:58:40.253Z,22.25
2018-11-04T07:01:07.743Z,23.15
2018-11-04T07:03:35.327Z,23.65
2018-11-04T07:06:02.835Z,23.10
2018-11-04T07:08:30.298Z,22.10
2018-11-04T07:10:57.858Z,23.02
2018-11-04T07:13:25.385Z,23.38
2018-11-04T07:15:52.929Z,22.87
2018-11-04T07:18:20.397Z,23.27
2018-11-04T07:20:47.945Z,23.92
2018-11-04T07:23:15.406Z,23.70
2018-11-04T07:25:43.026Z,23.05
2018-11-04T07:28:10.429Z,22.35
2018-11-04T07:30:37.977Z,23.38
2018-11-04T07:33:05.494Z,23.45
2018-11-04T07:35:33.013Z,22.60
2018-11-04T07:38:00.874Z,22.80
2018-11-04T07:40:28.431Z,23.00
2018-11-04T07:42:55.917Z,20.27
2018-11-04T07:45:23.409Z,23.15
2018-11-04T07:47:50.983Z,22.55
2018-11-04T07:50:18.704Z,22.32
2018-11-04T07:52:46.234Z,23.22
2018-11-04T07:55:13.769Z,23.27
2018-11-04T07:57:42.269Z,22.17
2018-11-04T08:00:12.219Z,21.70
2018-11-04T08:02:39.849Z,22.15
2018-11-04T08:05:08.272Z,22.42
2018-11-04T08:07:36.297Z,20.57
2018-11-04T08:10:04.062Z,22.25
2018-11-04T08:12:31.631Z,21.40
2018-11-04T08:14:59.115Z,21.50
2018-11-04T08:17:26.650Z,21.27
2018-11-04T08:19:54.177Z,20.57
2018-11-04T08:22:21.746Z,21.12
2018-11-04T08:24:49.267Z,20.20
2018-11-04T08:27:16.777Z,19.92
2018-11-04T08:29:44.363Z,18.55
2018-11-04T08:32:11.832Z,19.10
2018-11-04T08:34:39.522Z,19.40
2018-11-04T08:37:07.084Z,20.23
2018-11-04T08:39:34.655Z,18.10
2018-11-04T08:42:02.152Z,17.23
2018-11-04T08:44:29.763Z,17.35
2018-11-04T08:46:57.252Z,18.50
2018-11-04T08:49:24.812Z,17.90
2018-11-04T08:51:52.384Z,21.00
2018-11-04T08:54:19.930Z,20.23
2018-11-04T08:56:47.552Z,18.20
2018-11-04T08:59:15.107Z,16.75
2018-11-04T09:01:42.587Z,17.20
2018-11-04T09:04:10.210Z,17.85
2018-11-04T09:06:37.819Z,17.07
2018-11-04T09:09:06.222Z,18.73
2018-11-04T09:11:33.693Z,17.50
2018-11-04T09:14:01.668Z,19.07
2018-11-04T09:16:30.471Z,16.42
2018-11-04T09:18:58.014Z,18.40
2018-11-04T09:21:25.704Z,17.50
2018-11-04T09:23:53.322Z,19.30
2018-11-04T09:26:20.925Z,18.48
2018-11-04T09:28:48.403Z,17.55
2018-11-04T09:31:15.991Z,21.82
2018-11-04T09:33:43.509Z,20.35
2018-11-04T09:36:11.279Z,21.82
2018-11-04T09:38:38.713Z,19.90
2018-11-04T09:41:06.324Z,20.97
2018-11-04T09:43:33.838Z,20.23
2018-11-04T09:46:01.571Z,20.40
2018-11-04T09:48:29.183Z,19.65
2018-11-04T09:50:56.914Z,19.50
2018-11-04T09:53:24.391Z,21.05
2018-11-04T09:55:51.951Z,22.40
2018-11-04T09:58:19.570Z,19.73
2018-11-04T10:00:47.126Z,21.23
2018-11-04T10:03:14.703Z,19.75
2018-11-04T10:05:42.205Z,20.52
2018-11-04T10:08:09.848Z,18.85
2018-11-04T10:10:37.358Z,21.60
2018-11-04T10:13:04.973Z,23.15
2018-11-04T10:15:32.469Z,22.75
2018-11-04T10:18:00.059Z,22.15
2018-11-04T10:20:27.804Z,22.02
2018-11-04T10:22:55.154Z,21.30
2018-11-04T10:25:22.674Z,22.15
2018-11-04T10:27:50.289Z,20.52
2018-11-04T10:30:17.982Z,18.52
2018-11-04T10:32:45.588Z,19.50
2018-11-04T10:35:13.163Z,18.75
2018-11-04T10:37:41.441Z,16.90
2018-11-04T10:40:09.988Z,17.98
2018-11-04T10:42:37.602Z,17.27
2018-11-04T10:45:06.593Z,16.90
2018-11-04T10:47:34.113Z,16.62
2018-11-04T10:50:02.281Z,17.15
2018-11-04T10:52:29.728Z,16.07
2018-11-04T10:54:57.322Z,16.23
2018-11-04T10:57:24.814Z,17.40
2018-11-04T10:59:52.386Z,18.37
2018-11-04T11:02:19.978Z,17.32
2018-11-04T11:04:47.507Z,16.40
2018-11-04T11:07:15.082Z,16.67
2018-11-04T11:09:42.665Z,16.55
2018-11-04T11:12:10.280Z,17.45
2018-11-04T11:14:37.853Z,17.40
2018-11-04T11:17:05.476Z,15.68
2018-11-04T11:19:32.962Z,15.65
2018-11-04T11:22:00.887Z,15.35
2018-11-04T11:24:28.423Z,17.85
2018-11-04T11:26:56.071Z,16.05
2018-11-04T11:29:23.588Z,17.75
2018-11-04T11:31:51.260Z,18.12
2018-11-04T11:34:18.767Z,17.60
2018-11-04T11:36:46.395Z,17.30
2018-11-04T11:39:14.053Z,18.20
2018-11-04T11:41:42.291Z,16.77
2018-11-04T11:44:09.806Z,18.07
2018-11-04T11:46:37.366Z,17.50
2018-11-04T11:49:05.199Z,17.92
2018-11-04T11:51:32.792Z,18.67
2018-11-04T11:54:00.349Z,18.52
2018-11-04T11:56:27.849Z,18.23
2018-11-04T11:58:55.430Z,17.12
2018-11-04T12:01:22.908Z,17.73
2018-11-04T12:03:50.513Z,18.92
2018-11-04T12:06:18.011Z,18.10
2018-11-04T12:08:45.605Z,18.95
2018-11-04T12:11:13.130Z,18.27
2018-11-04T12:13:40.799Z,18.77
2018-11-04T12:16:08.347Z,18.95
2018-11-04T12:18:35.969Z,20.50
2018-11-04T12:21:03.550Z,20.48
2018-11-04T12:23:31.191Z,19.00
2018-11-04T12:25:58.732Z,19.35
2018-11-04T12:28:26.390Z,19.17
2018-11-04T12:30:53.985Z,19.73
2018-11-04T12:33:21.505Z,20.30
2018-11-04T12:35:49.079Z,19.25
2018-11-04T12:38:16.615Z,18.80
2018-11-04T12:40:44.186Z,20.12
2018-11-04T12:43:11.698Z,19.77
2018-11-04T12:45:39.271Z,20.15
2018-11-04T12:48:06.786Z,19.60
2018-11-04T12:50:34.459Z,19.15
2018-11-04T12:53:01.973Z,20.00
2018-11-04T12:55:29.566Z,19.20
2018-11-04T12:57:57.110Z,20.90
2018-11-04T13:00:24.699Z,18.87
2018-11-04T13:02:52.221Z,18.85
2018-11-04T13:05:19.835Z,17.42
2018-11-04T13:07:47.393Z,18.15
2018-11-04T13:10:15.115Z,17.52
2018-11-04T13:12:42.521Z,18.67
2018-11-04T13:15:11.558Z,17.57
2018-11-04T13:17:39.298Z,17.25
2018-11-04T13:20:06.900Z,17.67
2018-11-04T13:22:34.497Z,16.37
2018-11-04T13:25:02.110Z,17.23
2018-11-04T13:27:29.701Z,17.35
2018-11-04T13:29:57.309Z,15.70
2018-11-04T13:32:24.882Z,17.42
2018-11-04T13:34:52.390Z,15.80
2018-11-04T13:37:19.908Z,16.85
2018-11-04T13:39:47.558Z,15.00
2018-11-04T13:42:15.083Z,16.95
2018-11-04T13:44:42.682Z,15.78
2018-11-04T13:47:10.326Z,16.12
2018-11-04T13:49:37.976Z,15.40
2018-11-04T13:52:05.613Z,14.40
2018-11-04T13:54:33.343Z,16.73
2018-11-04T13:57:00.877Z,16.05
2018-11-04T13:59:28.355Z,15.93
2018-11-04T14:01:55.940Z,16.62
2018-11-04T14:04:23.626Z,15.85
2018-11-04T14:06:51.223Z,15.98
2018-11-04T14:09:18.781Z,16.10
2018-11-04T14:11:46.379Z,14.65
2018-11-04T14:14:13.890Z,15.08
2018-11-04T14:16:41.483Z,14.47
2018-11-04T14:19:09.001Z,15.43
2018-11-04T14:21:36.653Z,14.90
2018-11-04T14:24:04.347Z,15.18
2018-11-04T14:26:31.943Z,13.53
2018-11-04T14:28:59.482Z,14.75
2018-11-04T14:31:27.108Z,15.10
2018-11-04T14:33:54.632Z,14.95
2018-11-04T14:36:22.109Z,13.60
2018-11-04T14:38:49.774Z,15.20
2018-11-04T14:41:17.424Z,14.35
2018-11-04T14:43:45.035Z,14.15
2018-11-04T14:46:12.657Z,14.07
2018-11-04T14:48:40.197Z,14.45
2018-11-04T14:51:07.958Z,14.13
2018-11-04T14:53:35.483Z,14.93
2018-11-04T14:56:03.044Z,14.53
2018-11-04T14:58:30.656Z,13.28
2018-11-04T15:00:58.209Z,13.70
2018-11-04T15:03:25.909Z,15.30
2018-11-04T15:05:53.444Z,14.65
2018-11-04T15:08:21.078Z,13.68
2018-11-04T15:10:48.709Z,14.45
2018-11-04T15:13:16.316Z,15.13
2018-11-04T15:15:43.898Z,13.50
2018-11-04T15:18:11.563Z,13.50
2018-11-04T15:20:39.092Z,14.68
2018-11-04T15:23:06.667Z,13.45
2018-11-04T15:25:34.248Z,13.90
2018-11-04T15:28:02.108Z,13.25
2018-11-04T15:30:29.651Z,14.28
2018-11-04T15:32:57.317Z,13.68
2018-11-04T15:35:24.933Z,13.83
2018-11-04T15:37:52.485Z,13.05
2018-11-04T15:40:20.131Z,13.38
2018-11-04T15:42:47.690Z,12.78
2018-11-04T15:45:15.956Z,12.20
2018-11-04T15:47:43.512Z,12.20
2018-11-04T15:50:12.910Z,13.62
2018-11-04T15:52:40.427Z,12.73
2018-11-04T15:55:08.094Z,11.05
2018-11-04T15:57:35.706Z,11.48
2018-11-04T16:00:03.399Z,12.50
2018-11-04T16:02:31.037Z,11.43
2018-11-04T16:04:58.588Z,12.23
2018-11-04T16:07:26.266Z,12.85
2018-11-04T16:09:53.798Z,12.03
2018-11-04T16:12:21.524Z,10.88
2018-11-04T16:14:49.046Z,12.03
2018-11-04T16:17:16.650Z,11.57
2018-11-04T16:19:44.193Z,11.35
2018-11-04T16:22:11.860Z,11.03
2018-11-04T16:24:39.370Z,12.63
2018-11-04T16:27:06.971Z,11.12
2018-11-04T16:29:34.502Z,13.28
2018-11-04T16:32:02.311Z,11.28
2018-11-04T16:34:29.834Z,12.00
2018-11-04T16:36:57.422Z,12.73
2018-11-04T16:39:25.121Z,12.75
2018-11-04T16:41:52.652Z,12.55
2018-11-04T16:44:20.404Z,12.73
2018-11-04T16:46:47.828Z,12.07
2018-11-04T16:49:15.464Z,12.45
2018-11-04T16:51:43.069Z,12.23
2018-11-04T16:54:10.721Z,11.70
2018-11-04T16:56:38.316Z,13.83
2018-11-04T16:59:06.075Z,12.82
2018-11-04T17:01:33.654Z,14.18
2018-11-04T17:04:01.537Z,12.93
2018-11-04T17:06:29.261Z,13.70
2018-11-04T17:08:56.750Z,13.60
2018-11-04T17:11:24.474Z,14.98
2018-11-04T17:13:52.001Z,13.30
2018-11-04T17:16:19.586Z,15.15
2018-11-04T17:18:47.201Z,14.47
2018-11-04T17:21:14.751Z,14.03
2018-11-04T17:23:42.337Z,14.55
2018-11-04T17:26:09.956Z,14.70
2018-11-04T17:28:37.717Z,15.40
2018-11-04T17:31:05.434Z,15.35
2018-11-04T17:33:33.098Z,13.98
2018-11-04T17:36:00.822Z,14.75
2018-11-04T17:38:28.459Z,15.58
2018-11-04T17:40:56.117Z,15.40
2018-11-04T17:43:23.670Z,15.23
2018-11-04T17:45:51.256Z,14.40
2018-11-04T17:48:18.775Z,16.02
2018-11-04T17:50:46.392Z,13.55
2018-11-04T17:53:14.014Z,15.38
2018-11-04T17:55:41.588Z,15.25
2018-11-04T17:58:09.221Z,14.90
2018-11-04T18:00:46.219Z,14.25
2018-11-04T18:03:17.863Z,15.43
2018-11-04T18:05:51.767Z,14.18
2018-11-04T18:08:21.622Z,14.43
2018-11-04T18:10:52.414Z,13.72
2018-11-04T18:13:22.145Z,14.15
2018-11-04T18:15:50.468Z,14.20
2018-11-04T18:18:18.763Z,14.40
2018-11-04T18:20:48.458Z,13.55
2018-11-04T18:23:16.061Z,13.90
2018-11-04T18:25:43.614Z,15.35
2018-11-04T18:28:11.125Z,14.13
2018-11-04T18:30:38.768Z,13.55
2018-11-04T18:33:06.376Z,13.70
2018-11-04T18:35:33.976Z,14.90
2018-11-04T18:38:01.560Z,13.00
2018-11-04T18:40:29.158Z,13.40
2018-11-04T18:42:56.667Z,12.90
2018-11-04T18:45:24.314Z,14.40
2018-11-04T18:47:52.817Z,12.60
2018-11-04T18:50:20.598Z,14.50
2018-11-04T18:52:48.303Z,12.95
2018-11-04T18:55:15.720Z,13.70
2018-11-04T18:57:43.764Z,13.72
2018-11-04T19:00:13.388Z,14.07
2018-11-04T19:02:40.992Z,11.93
2018-11-04T19:05:09.236Z,13.38
2018-11-04T19:07:36.959Z,13.80
2018-11-04T19:10:06.222Z,12.88
2018-11-04T19:12:33.793Z,13.13
2018-11-04T19:15:01.513Z,13.70
2018-11-04T19:17:29.019Z,13.18
2018-11-04T19:19:56.655Z,13.30
2018-11-04T19:22:24.354Z,14.55
2018-11-04T19:24:51.893Z,14.55
2018-11-04T19:27:19.474Z,13.62
2018-11-04T19:29:47.082Z,14.35
2018-11-04T19:32:14.746Z,14.00
2018-11-04T19:34:42.393Z,14.03
2018-11-04T19:37:10.055Z,13.53
2018-11-04T19:39:37.579Z,14.05
2018-11-04T19:42:05.352Z,13.68
2018-11-04T19:44:32.897Z,12.88
2018-11-04T19:47:00.955Z,14.40
2018-11-04T19:49:28.565Z,14.93
2018-11-04T19:51:56.311Z,13.25
2018-11-04T19:54:24.039Z,13.48
2018-11-04T19:56:51.620Z,15.00
2018-11-04T19:59:19.429Z,13.48
2018-11-04T20:01:46.870Z,15.08
2018-11-04T20:04:14.662Z,15.23
2018-11-04T20:06:42.199Z,13.85
2018-11-04T20:09:12.890Z,14.50
2018-11-04T20:11:40.599Z,15.08
2018-11-04T20:14:13.888Z,14.50
2018-11-04T20:16:41.499Z,14.95
2018-11-04T20:20:14.607Z,15.08
2018-11-04T20:22:42.273Z,14.38
2018-11-04T20:25:15.600Z,16.05
2018-11-04T20:27:43.233Z,14.58
2018-11-04T20:30:12.065Z,15.83
2018-11-04T20:32:45.374Z,14.73
2018-11-04T20:35:13.647Z,15.05
2018-11-04T20:37:41.397Z,15.30
2018-11-04T20:40:14.719Z,16.57
2018-11-04T20:42:42.298Z,15.90
2018-11-04T20:45:10.065Z,16.10
2018-11-04T20:47:43.215Z,15.68
2018-11-04T20:50:16.498Z,16.40
2018-11-04T20:52:44.101Z,16.15
2018-11-04T20:55:11.798Z,16.20
2018-11-04T20:57:43.060Z,14.70
2018-11-04T21:00:12.280Z,15.85
2018-11-04T21:02:40.041Z,16.10
2018-11-04T21:05:07.559Z,16.48
2018-11-04T21:07:35.274Z,16.10
2018-11-04T21:10:03.060Z,15.10
2018-11-04T21:12:30.639Z,15.90
2018-11-04T21:14:58.245Z,14.80
2018-11-04T21:17:25.868Z,15.50
2018-11-04T21:19:53.421Z,15.40
2018-11-04T21:22:21.020Z,16.57
2018-11-04T21:24:48.608Z,15.83
2018-11-04T21:27:16.163Z,14.50
2018-11-04T21:29:44.603Z,15.30
2018-11-04T21:32:11.903Z,15.10
2018-11-04T21:34:39.414Z,14.55
2018-11-04T21:37:07.048Z,15.38
2018-11-04T21:39:34.615Z,15.43
2018-11-04T21:42:02.374Z,16.25
2018-11-04T21:44:29.864Z,15.90
2018-11-04T21:46:57.465Z,16.30
2018-11-04T21:49:25.098Z,15.60
2018-11-04T21:51:52.645Z,14.83
2018-11-04T21:54:20.294Z,15.15
2018-11-04T21:56:47.838Z,14.20
2018-11-04T21:59:15.457Z,16.10
2018-11-04T22:01:42.978Z,15.93
2018-11-04T22:04:10.749Z,15.83
2018-11-04T22:06:38.070Z,14.90
2018-11-04T22:09:06.829Z,14.33
2018-11-04T22:11:34.306Z,14.43
2018-11-04T22:14:02.581Z,14.70
2018-11-04T22:16:29.974Z,14.30
2018-11-04T22:18:57.543Z,15.35
2018-11-04T22:21:25.106Z,15.45
2018-11-04T22:23:52.783Z,15.45
2018-11-04T22:26:20.330Z,16.30
2018-11-04T22:28:47.942Z,15.85
2018-11-04T22:31:15.419Z,13.78
2018-11-04T22:33:42.924Z,16.20
2018-11-04T22:36:10.645Z,14.63
2018-11-04T22:38:38.179Z,14.38
2018-11-04T22:41:05.813Z,15.43
2018-11-04T22:43:33.503Z,14.45
2018-11-04T22:46:01.081Z,16.80
2018-11-04T22:48:28.635Z,15.65
2018-11-04T22:50:56.246Z,16.10
2018-11-04T22:53:23.758Z,15.68
2018-11-04T22:55:51.423Z,16.50
2018-11-04T22:58:18.873Z,15.58
2018-11-04T23:00:50.989Z,16.62
2018-11-04T23:03:18.482Z,17.37
2018-11-04T23:05:46.058Z,15.58
2018-11-04T23:08:14.654Z,16.20
2018-11-04T23:10:42.189Z,16.85
2018-11-04T23:13:09.774Z,15.63
2018-11-04T23:15:37.309Z,16.80
2018-11-04T23:18:05.019Z,14.98
2018-11-04T23:20:32.533Z,16.37
2018-11-04T23:23:00.080Z,16.67
2018-11-04T23:25:27.599Z,15.78
2018-11-04T23:27:55.186Z,16.40
2018-11-04T23:30:22.672Z,15.88
2018-11-04T23:32:50.246Z,15.35
2018-11-04T23:35:17.685Z,15.63
2018-11-04T23:37:45.269Z,15.70
2018-11-04T23:40:13.042Z,16.20
2018-11-04T23:42:40.618Z,14.30
2018-11-04T23:45:09.501Z,15.85
2018-11-04T23:47:37.185Z,16.37
2018-11-04T23:50:06.839Z,17.42
2018-11-04T23:52:34.532Z,16.42
2018-11-04T23:55:02.019Z,14.87
2018-11-04T23:57:29.507Z,16.48
2018-11-04T23:59:57.102Z,16.10
